Time;durP1;ratioP1;P1;durP2;ratioP2;P2;SDS_P1;SDS_P2;PMS_P1;PMS_P2;Temp;Humidity;BMP_temperature;BMP_pressure;BME280_temperature;BME280_humidity;BME280_pressure;Samples;Min_cycle;Max_cycle;Signal;HPM_P1;HPM_P2
2022/05/16 00:01:55;;;;;;;;;5.50;5.50;;;;;;;;5027791;28;10544;-76
2022/05/16 00:04:22;;;;;;;;;8.00;8.00;;;;;;;;5021662;28;8886;-76
2022/05/16 00:06:50;;;;;;;;;6.50;6.50;;;;;;;;5024557;28;8906;-76
2022/05/16 00:09:17;;;;;;;;;7.00;7.00;;;;;;;;5019959;28;8868;-76
2022/05/16 00:11:46;;;;;;;;;7.00;7.00;;;;;;;;5030295;28;8871;-77
2022/05/16 00:14:14;;;;;;;;;5.00;5.00;;;;;;;;5023854;28;8874;-76
2022/05/16 00:16:41;;;;;;;;;5.25;5.25;;;;;;;;5017193;28;8874;-77
2022/05/16 00:19:08;;;;;;;;;5.00;5.00;;;;;;;;5016103;28;8866;-77
2022/05/16 00:21:36;;;;;;;;;6.00;4.50;;;;;;;;5025496;28;8882;-76
2022/05/16 00:24:03;;;;;;;;;7.00;7.00;;;;;;;;5021714;28;8912;-76
2022/05/16 00:26:31;;;;;;;;;5.25;5.25;;;;;;;;5030060;28;8860;-76
2022/05/16 00:28:59;;;;;;;;;4.00;4.00;;;;;;;;5022501;28;9634;-76
2022/05/16 00:31:26;;;;;;;;;5.00;5.00;;;;;;;;5017889;28;8814;-76
2022/05/16 00:33:54;;;;;;;;;4.25;4.25;;;;;;;;5022319;28;8870;-77
2022/05/16 00:36:21;;;;;;;;;4.75;4.00;;;;;;;;5029305;28;9001;-76
2022/05/16 00:38:50;;;;;;;;;5.00;4.75;;;;;;;;5017343;28;8878;-76
2022/05/16 00:41:17;;;;;;;;;4.00;4.00;;;;;;;;5004609;28;8858;-77
2022/05/16 00:43:48;;;;;;;;;5.00;5.00;;;;;;;;5023237;28;8875;-76
2022/05/16 00:46:18;;;;;;;;;3.50;3.50;;;;;;;;5026832;28;8856;-76
2022/05/16 00:48:45;;;;;;;;;4.00;4.00;;;;;;;;5014996;28;8904;-76
2022/05/16 00:51:18;;;;;;;;;6.00;4.00;;;;;;;;5029914;28;8856;-77
2022/05/16 00:53:45;;;;;;;;;4.50;3.00;;;;;;;;5035779;28;8874;-76
2022/05/16 00:56:12;;;;;;;;;2.25;2.25;;;;;;;;5031232;28;8874;-77
2022/05/16 00:58:42;;;;;;;;;5.25;4.00;;;;;;;;5023958;28;8850;-76
2022/05/16 01:04:47;;;;;;;;;5.00;5.00;;;;;;;;5027249;28;8958;-77
2022/05/16 01:06:44;;;;;;;;;5.00;5.00;;;;;;;;5027960;28;8826;-77
2022/05/16 01:09:11;;;;;;;;;5.00;5.00;;;;;;;;5026392;28;8856;-77
2022/05/16 01:11:40;;;;;;;;;4.00;4.00;;;;;;;;5024281;28;8869;-76
2022/05/16 01:14:07;;;;;;;;;3.00;3.00;;;;;;;;5026504;28;9693;-76
2022/05/16 01:16:35;;;;;;;;;3.25;3.25;;;;;;;;5031853;28;8970;-77
2022/05/16 01:19:03;;;;;;;;;2.50;2.50;;;;;;;;5026532;28;8977;-77
2022/05/16 01:21:35;;;;;;;;;5.75;4.00;;;;;;;;5028155;28;9016;-77
2022/05/16 01:24:08;;;;;;;;;5.50;5.00;;;;;;;;5035230;28;8844;-77
2022/05/16 01:26:35;;;;;;;;;1.50;1.25;;;;;;;;5029528;28;8872;-76
2022/05/16 01:29:04;;;;;;;;;4.50;4.50;;;;;;;;5025158;28;8844;-76
2022/05/16 01:31:31;;;;;;;;;4.00;4.00;;;;;;;;5025735;28;8963;-77
2022/05/16 01:33:59;;;;;;;;;6.75;5.00;;;;;;;;5031080;28;8864;-76
2022/05/16 01:36:26;;;;;;;;;7.00;7.00;;;;;;;;5028888;28;8858;-76
2022/05/16 01:38:54;;;;;;;;;5.00;5.00;;;;;;;;5027097;28;9726;-77
2022/05/16 01:41:24;;;;;;;;;8.75;6.25;;;;;;;;5029718;28;8985;-77
2022/05/16 01:43:55;;;;;;;;;7.50;7.50;;;;;;;;5019312;28;8868;-76
2022/05/16 01:46:25;;;;;;;;;7.50;6.00;;;;;;;;5024102;28;8866;-76
2022/05/16 01:48:54;;;;;;;;;12.25;8.75;;;;;;;;5020332;28;8895;-76
2022/05/16 01:51:22;;;;;;;;;7.00;7.00;;;;;;;;5024809;28;8872;-76
2022/05/16 01:53:50;;;;;;;;;10.50;8.50;;;;;;;;5024595;28;8860;-76
2022/05/16 01:56:18;;;;;;;;;7.00;7.00;;;;;;;;5017509;28;9654;-77
2022/05/16 01:58:47;;;;;;;;;7.00;6.50;;;;;;;;5012848;28;8838;-77
2022/05/16 02:01:15;;;;;;;;;8.75;8.75;;;;;;;;5028865;28;8816;-76
2022/05/16 02:03:44;;;;;;;;;7.75;6.50;;;;;;;;5021709;28;8866;-76
2022/05/16 02:06:12;;;;;;;;;5.50;5.50;;;;;;;;5028987;28;8969;-77
2022/05/16 02:08:39;;;;;;;;;8.00;8.00;;;;;;;;5027689;28;8899;-77
2022/05/16 02:11:07;;;;;;;;;8.00;8.00;;;;;;;;5030741;28;8873;-77
2022/05/16 02:13:35;;;;;;;;;10.50;8.75;;;;;;;;5027551;28;8866;-76
2022/05/16 02:16:05;;;;;;;;;8.75;8.75;;;;;;;;5025136;28;8874;-77
2022/05/16 02:18:32;;;;;;;;;11.50;9.00;;;;;;;;5027229;28;8954;-76
2022/05/16 02:26:25;;;;;;;;;7.25;7.25;;;;;;;;5032225;28;8842;-76
2022/05/16 02:28:52;;;;;;;;;8.00;8.00;;;;;;;;5018578;28;8876;-76
2022/05/16 02:31:21;;;;;;;;;6.50;6.50;;;;;;;;5030833;28;8832;-77
2022/05/16 02:33:48;;;;;;;;;8.50;8.50;;;;;;;;5029926;28;8868;-77
2022/05/16 02:36:16;;;;;;;;;8.50;8.50;;;;;;;;5024243;28;8875;-76
2022/05/16 02:38:43;;;;;;;;;6.00;6.00;;;;;;;;5027711;28;8838;-77
2022/05/16 02:41:11;;;;;;;;;4.00;4.00;;;;;;;;5039053;28;8944;-77
2022/05/16 02:43:38;;;;;;;;;7.00;7.00;;;;;;;;5019909;28;8935;-76
2022/05/16 02:46:06;;;;;;;;;10.75;8.50;;;;;;;;5023858;28;8894;-77
2022/05/16 02:48:34;;;;;;;;;11.00;8.75;;;;;;;;5024631;28;8998;-77
2022/05/16 02:51:01;;;;;;;;;6.00;6.00;;;;;;;;5025390;28;8842;-76
2022/05/16 02:53:29;;;;;;;;;7.50;6.00;;;;;;;;5030117;28;8865;-77
2022/05/16 02:55:56;;;;;;;;;6.50;6.50;;;;;;;;5024831;28;8855;-76
2022/05/16 02:58:23;;;;;;;;;8.50;7.25;;;;;;;;5021390;28;8868;-76
2022/05/16 03:00:50;;;;;;;;;7.00;7.00;;;;;;;;5022150;28;8814;-77
2022/05/16 03:03:17;;;;;;;;;6.75;6.00;;;;;;;;5021417;28;8908;-76
2022/05/16 03:05:46;;;;;;;;;8.75;7.75;;;;;;;;5025933;28;8881;-76
2022/05/16 03:08:13;;;;;;;;;9.25;7.25;;;;;;;;5023666;28;8896;-77
2022/05/16 03:10:40;;;;;;;;;6.50;6.50;;;;;;;;5029043;28;8842;-76
2022/05/16 03:13:08;;;;;;;;;8.00;7.25;;;;;;;;5036149;28;8856;-77
2022/05/16 03:15:35;;;;;;;;;7.75;7.50;;;;;;;;5034135;28;8860;-76
2022/05/16 03:18:02;;;;;;;;;9.00;7.25;;;;;;;;5022257;28;8930;-76
2022/05/16 03:20:29;;;;;;;;;5.50;5.50;;;;;;;;5030216;28;8871;-77
2022/05/16 03:22:58;;;;;;;;;7.25;7.25;;;;;;;;5040446;28;8872;-76
2022/05/16 03:25:26;;;;;;;;;7.25;7.25;;;;;;;;5024478;28;8912;-77
2022/05/16 03:27:53;;;;;;;;;8.00;8.00;;;;;;;;5030249;28;8875;-76
2022/05/16 03:30:20;;;;;;;;;8.00;6.75;;;;;;;;5036337;28;8867;-76
2022/05/16 03:32:47;;;;;;;;;5.50;5.50;;;;;;;;5025666;28;8862;-76
2022/05/16 03:35:14;;;;;;;;;6.00;5.75;;;;;;;;5024014;28;8876;-75
2022/05/16 03:37:42;;;;;;;;;7.00;7.00;;;;;;;;5033198;28;8865;-75
2022/05/16 03:42:57;;;;;;;;;6.25;6.25;;;;;;;;5035224;28;9602;-77
2022/05/16 03:45:25;;;;;;;;;7.25;7.00;;;;;;;;5030962;28;10118;-76
2022/05/16 03:47:53;;;;;;;;;8.00;7.75;;;;;;;;5032249;28;8861;-77
2022/05/16 03:50:20;;;;;;;;;9.50;9.50;;;;;;;;5032218;28;8986;-77
2022/05/16 03:52:47;;;;;;;;;7.00;7.00;;;;;;;;5025771;28;8921;-77
2022/05/16 03:55:17;;;;;;;;;5.75;5.75;;;;;;;;5029370;28;8957;-76
2022/05/16 03:57:45;;;;;;;;;8.00;6.00;;;;;;;;5019777;28;8963;-76
2022/05/16 04:00:15;;;;;;;;;7.25;6.00;;;;;;;;5029467;28;8876;-76
2022/05/16 04:02:43;;;;;;;;;6.50;6.50;;;;;;;;5018845;28;8898;-77
2022/05/16 04:05:15;;;;;;;;;8.50;8.00;;;;;;;;5029796;28;8842;-77
2022/05/16 04:07:42;;;;;;;;;10.25;8.00;;;;;;;;5018986;28;9769;-76
2022/05/16 04:10:10;;;;;;;;;9.00;9.00;;;;;;;;5021192;28;8868;-77
2022/05/16 04:12:38;;;;;;;;;10.25;7.75;;;;;;;;5023750;28;8890;-77
2022/05/16 04:15:07;;;;;;;;;9.25;6.25;;;;;;;;5011512;28;8890;-77
2022/05/16 04:17:35;;;;;;;;;11.75;9.75;;;;;;;;5026087;28;8857;-76
2022/05/16 04:20:02;;;;;;;;;10.25;9.50;;;;;;;;5030331;28;8871;-76
2022/05/16 04:22:30;;;;;;;;;8.75;8.75;;;;;;;;5025296;28;8842;-76
2022/05/16 04:24:58;;;;;;;;;7.00;6.75;;;;;;;;5030518;28;8859;-76
2022/05/16 04:27:25;;;;;;;;;11.25;8.75;;;;;;;;5015668;28;8850;-77
2022/05/16 04:29:54;;;;;;;;;8.25;8.25;;;;;;;;5012323;28;8855;-77
2022/05/16 04:32:21;;;;;;;;;9.00;8.25;;;;;;;;5010131;28;8917;-77
2022/05/16 04:34:48;;;;;;;;;9.50;9.50;;;;;;;;5010527;28;9724;-79
2022/05/16 04:37:16;;;;;;;;;8.50;8.50;;;;;;;;5017238;28;8904;-78
2022/05/16 04:39:44;;;;;;;;;8.25;6.50;;;;;;;;5022118;28;8894;-77
2022/05/16 04:44:57;;;;;;;;;9.00;9.00;;;;;;;;5016889;28;8975;-79
2022/05/16 04:47:26;;;;;;;;;10.75;10.75;;;;;;;;5017983;28;8853;-78
2022/05/16 04:49:53;;;;;;;;;13.75;12.50;;;;;;;;5024358;28;8913;-76
2022/05/16 04:52:21;;;;;;;;;13.00;9.25;;;;;;;;5009609;28;8861;-80
2022/05/16 04:54:49;;;;;;;;;11.75;11.75;;;;;;;;5022659;28;8890;-80
2022/05/16 04:57:17;;;;;;;;;12.50;10.25;;;;;;;;5022879;28;8866;-81
2022/05/16 04:59:47;;;;;;;;;8.75;8.75;;;;;;;;5016349;28;8878;-83
2022/05/16 05:02:16;;;;;;;;;14.50;13.75;;;;;;;;5016257;28;8785;-81
2022/05/16 05:04:43;;;;;;;;;12.75;12.75;;;;;;;;5016155;28;8900;-82
2022/05/16 05:07:12;;;;;;;;;13.50;11.75;;;;;;;;5012273;28;8871;-81
2022/05/16 05:15:06;;;;;;;;;13.00;13.00;;;;;;;;5017141;28;8836;-79
2022/05/16 05:17:34;;;;;;;;;14.50;13.50;;;;;;;;5012041;28;8857;-77
2022/05/16 05:20:02;;;;;;;;;10.50;8.50;;;;;;;;5013935;28;8876;-80
2022/05/16 05:22:30;;;;;;;;;16.25;13.25;;;;;;;;5010396;28;8878;-79
2022/05/16 05:24:59;;;;;;;;;13.00;12.50;;;;;;;;5016034;28;8854;-79
2022/05/16 05:27:26;;;;;;;;;16.00;14.25;;;;;;;;5019233;28;8878;-78
2022/05/16 05:29:54;;;;;;;;;14.00;11.75;;;;;;;;5029371;28;8864;-80
2022/05/16 05:32:22;;;;;;;;;15.50;11.50;;;;;;;;5028171;28;8854;-76
2022/05/16 05:34:50;;;;;;;;;15.75;15.75;;;;;;;;5015709;28;8877;-78
2022/05/16 05:37:17;;;;;;;;;17.50;15.00;;;;;;;;5014864;28;8879;-78
2022/05/16 05:39:45;;;;;;;;;22.25;19.25;;;;;;;;5013694;28;9709;-75
2022/05/16 05:42:12;;;;;;;;;17.25;15.75;;;;;;;;5019982;28;8882;-78
2022/05/16 05:44:39;;;;;;;;;21.00;19.50;;;;;;;;5017403;28;8892;-77
2022/05/16 05:47:07;;;;;;;;;20.50;20.50;;;;;;;;5019441;28;8864;-77
2022/05/16 05:49:34;;;;;;;;;20.00;18.00;;;;;;;;5020729;28;8901;-76
2022/05/16 05:52:03;;;;;;;;;20.00;20.00;;;;;;;;5026419;28;8895;-76
2022/05/16 05:54:30;;;;;;;;;20.75;20.75;;;;;;;;5023130;28;8868;-76
2022/05/16 05:56:58;;;;;;;;;21.25;20.25;;;;;;;;5028249;28;8854;-77
2022/05/16 05:59:25;;;;;;;;;22.75;20.75;;;;;;;;5028180;28;9697;-79
2022/05/16 06:01:53;;;;;;;;;21.25;21.25;;;;;;;;5032590;28;8843;-78
2022/05/16 06:04:20;;;;;;;;;22.50;20.00;;;;;;;;5022994;28;8898;-80
2022/05/16 06:06:47;;;;;;;;;20.25;19.00;;;;;;;;5038591;28;8918;-80
2022/05/16 06:09:16;;;;;;;;;18.50;18.50;;;;;;;;5030687;28;8884;-79
2022/05/16 06:11:43;;;;;;;;;22.25;21.75;;;;;;;;5016889;28;8837;-80
2022/05/16 06:14:11;;;;;;;;;15.50;15.25;;;;;;;;5028654;28;8882;-80
2022/05/16 06:16:38;;;;;;;;;22.00;20.50;;;;;;;;5033500;28;9633;-79
2022/05/16 06:19:05;;;;;;;;;27.25;26.00;;;;;;;;5019329;28;8860;-81
2022/05/16 06:21:32;;;;;;;;;23.50;22.00;;;;;;;;5039692;28;9672;-79
2022/05/16 06:24:00;;;;;;;;;23.75;20.50;;;;;;;;5037107;28;8857;-82
2022/05/16 06:26:29;;;;;;;;;24.25;23.00;;;;;;;;5016062;28;8872;-80
2022/05/16 06:28:57;;;;;;;;;21.50;20.50;;;;;;;;5008496;28;8886;-82
2022/05/16 06:31:25;;;;;;;;;24.75;21.00;;;;;;;;5021019;28;8928;-79
2022/05/16 06:33:52;;;;;;;;;24.75;20.50;;;;;;;;5020587;28;8833;-79
2022/05/16 06:36:19;;;;;;;;;21.50;21.50;;;;;;;;5021270;28;8880;-80
2022/05/16 06:38:49;;;;;;;;;20.75;20.75;;;;;;;;5023475;28;9626;-79
2022/05/16 06:41:17;;;;;;;;;16.50;16.50;;;;;;;;5028819;28;9042;-79
2022/05/16 06:43:45;;;;;;;;;23.25;21.50;;;;;;;;5025053;28;8908;-81
2022/05/16 06:46:12;;;;;;;;;19.50;19.00;;;;;;;;5029452;28;8860;-80
2022/05/16 06:48:40;;;;;;;;;19.75;19.75;;;;;;;;5027910;28;9608;-80
2022/05/16 06:51:07;;;;;;;;;23.75;23.50;;;;;;;;5027719;28;8860;-80
2022/05/16 06:53:35;;;;;;;;;19.50;18.25;;;;;;;;5023756;28;8854;-82
2022/05/16 06:56:03;;;;;;;;;25.75;21.00;;;;;;;;5030066;28;8882;-81
2022/05/16 06:58:31;;;;;;;;;23.75;22.25;;;;;;;;5022364;28;8876;-77
2022/05/16 07:01:00;;;;;;;;;23.50;23.50;;;;;;;;5024399;28;8830;-81
2022/05/16 07:03:27;;;;;;;;;17.25;17.25;;;;;;;;5025852;28;8866;-79
2022/05/16 07:05:55;;;;;;;;;23.75;22.25;;;;;;;;5025349;28;8996;-80
2022/05/16 07:08:23;;;;;;;;;26.50;23.25;;;;;;;;5021423;28;8853;-80
2022/05/16 07:10:51;;;;;;;;;20.50;19.25;;;;;;;;5019101;28;8898;-83
2022/05/16 07:13:18;;;;;;;;;24.50;24.25;;;;;;;;5020849;28;8865;-80
2022/05/16 07:15:46;;;;;;;;;23.00;22.75;;;;;;;;5028017;28;9666;-80
2022/05/16 07:18:15;;;;;;;;;67.25;53.50;;;;;;;;5025019;28;9616;-80
2022/05/16 07:20:42;;;;;;;;;24.50;21.50;;;;;;;;5019095;28;9559;-78
2022/05/16 07:23:10;;;;;;;;;21.50;21.50;;;;;;;;5025425;28;8872;-82
2022/05/16 07:28:19;;;;;;;;;20.75;20.75;;;;;;;;5020886;28;8885;-83
2022/05/16 07:44:04;;;;;;;;;28.75;28.75;;;;;;;;5088125;27;13624;-76
2022/05/16 07:46:31;;;;;;;;;27.25;27.25;;;;;;;;5095608;28;8868;-78
2022/05/16 07:48:59;;;;;;;;;28.75;26.25;;;;;;;;5080371;28;8906;-79
2022/05/16 07:51:26;;;;;;;;;31.25;28.25;;;;;;;;5087483;28;9656;-79
2022/05/16 07:53:55;;;;;;;;;30.00;27.50;;;;;;;;5083110;28;8887;-79
2022/05/16 07:56:23;;;;;;;;;18.50;18.50;;;;;;;;5086819;28;9669;-78
2022/05/16 07:58:55;;;;;;;;;23.25;19.50;;;;;;;;5087147;28;9533;-77
2022/05/16 08:01:23;;;;;;;;;22.75;22.75;;;;;;;;5062632;28;8860;-76
2022/05/16 08:03:51;;;;;;;;;25.25;24.50;;;;;;;;5048792;28;8881;-77
2022/05/16 08:06:18;;;;;;;;;22.75;21.50;;;;;;;;5041393;28;8968;-77
2022/05/16 08:11:30;;;;;;;;;15.50;14.50;;;;;;;;5049111;28;8853;-77
2022/05/16 08:13:57;;;;;;;;;19.25;19.25;;;;;;;;5047849;28;8863;-78
2022/05/16 08:16:26;;;;;;;;;15.20;15.20;;;;;;;;5047079;28;8880;-77
2022/05/16 08:18:53;;;;;;;;;18.20;17.60;;;;;;;;5048403;28;8877;-77
2022/05/16 08:21:20;;;;;;;;;19.60;17.80;;;;;;;;5048895;28;9595;-77
2022/05/16 08:23:48;;;;;;;;;19.00;17.80;;;;;;;;5048514;28;8868;-78
2022/05/16 08:26:16;;;;;;;;;19.20;16.80;;;;;;;;5052326;28;8911;-78
2022/05/16 08:28:43;;;;;;;;;16.40;13.60;;;;;;;;5051937;28;8889;-78
2022/05/16 08:31:11;;;;;;;;;15.80;14.80;;;;;;;;5048855;28;8837;-77
2022/05/16 08:33:41;;;;;;;;;13.80;13.80;;;;;;;;5047439;28;8852;-77
2022/05/16 08:41:45;;;;;;;;;17.00;17.00;;;;;;;;5050646;28;8853;-77
2022/05/16 08:44:21;;;;;;;;;14.80;14.00;;;;;;;;5056601;28;8939;-78
2022/05/16 08:46:58;;;;;;;;;13.20;13.20;;;;;;;;5055010;28;8873;-77
2022/05/16 08:49:32;;;;;;;;;15.60;13.80;;;;;;;;5052440;28;8939;-76
2022/05/16 08:52:05;;;;;;;;;16.60;16.00;;;;;;;;5055025;28;8891;-77
2022/05/16 08:54:37;;;;;;;;;18.80;18.80;;;;;;;;5038594;28;8873;-77
2022/05/16 08:57:07;;;;;;;;;18.40;18.40;;;;;;;;5042126;28;9662;-78
2022/05/16 08:59:39;;;;;;;;;17.25;17.25;;;;;;;;5040842;28;8877;-78
2022/05/16 09:02:10;;;;;;;;;17.75;16.75;;;;;;;;5038501;28;8821;-76
2022/05/16 09:04:46;;;;;;;;;18.00;18.00;;;;;;;;5042228;28;8866;-76
2022/05/16 09:07:17;;;;;;;;;20.25;16.75;;;;;;;;5031960;28;8862;-76
2022/05/16 09:09:50;;;;;;;;;18.25;18.25;;;;;;;;5037143;28;8892;-77
2022/05/16 09:12:20;;;;;;;;;17.00;17.00;;;;;;;;5031802;28;9973;-76
2022/05/16 09:15:00;;;;;;;;;19.25;19.00;;;;;;;;5036992;28;8904;-79
2022/05/16 09:17:39;;;;;;;;;17.00;15.00;;;;;;;;5035467;28;8908;-74
2022/05/16 09:20:17;;;;;;;;;16.75;16.75;;;;;;;;5033378;28;8869;-80
2022/05/16 09:22:51;;;;;;;;;13.50;12.50;;;;;;;;5043103;28;8938;-77
2022/05/16 09:25:21;;;;;;;;;16.50;16.50;;;;;;;;5036532;28;8897;-80
2022/05/16 09:30:41;;;;;;;;;14.75;14.75;;;;;;;;5039114;28;8797;-76
2022/05/16 09:33:12;;;;;;;;;13.00;13.00;;;;;;;;5041823;28;8869;-78
2022/05/16 09:35:50;;;;;;;;;15.00;14.00;;;;;;;;5041928;28;8884;-80
2022/05/16 09:38:19;;;;;;;;;14.00;13.25;;;;;;;;5040640;28;8899;-80
2022/05/16 09:41:01;;;;;;;;;15.50;15.50;;;;;;;;5042223;28;9003;-79
2022/05/16 09:43:33;;;;;;;;;15.50;15.50;;;;;;;;5041196;28;8885;-80
2022/05/16 09:46:04;;;;;;;;;16.75;16.00;;;;;;;;5039824;28;9631;-80
2022/05/16 09:48:31;;;;;;;;;16.75;13.75;;;;;;;;5043310;28;8977;-82
2022/05/16 09:51:02;;;;;;;;;17.75;17.50;;;;;;;;5041872;28;8873;-81
2022/05/16 09:53:35;;;;;;;;;14.75;14.75;;;;;;;;5043689;28;8873;-81
2022/05/16 09:56:05;;;;;;;;;17.00;13.25;;;;;;;;5038364;28;9662;-78
2022/05/16 09:58:40;;;;;;;;;17.25;16.25;;;;;;;;5045373;28;8853;-85
2022/05/16 10:01:11;;;;;;;;;20.25;17.50;;;;;;;;5042129;28;8817;-80
2022/05/16 10:03:49;;;;;;;;;15.75;15.75;;;;;;;;5040049;28;8869;-78
2022/05/16 10:06:32;;;;;;;;;17.75;16.75;;;;;;;;5039083;28;8920;-79
2022/05/16 10:09:04;;;;;;;;;13.25;13.25;;;;;;;;5044255;28;8869;-78
2022/05/16 10:11:34;;;;;;;;;13.00;12.80;;;;;;;;5043947;28;8901;-83
2022/05/16 10:14:01;;;;;;;;;13.75;13.75;;;;;;;;5036905;28;8907;-78
2022/05/16 10:16:31;;;;;;;;;17.25;14.50;;;;;;;;5036417;28;8865;-76
2022/05/16 10:19:01;;;;;;;;;12.60;12.00;;;;;;;;5041624;28;8863;-78
2022/05/16 10:21:34;;;;;;;;;14.00;12.40;;;;;;;;5040544;28;9608;-77
2022/05/16 10:24:03;;;;;;;;;13.60;13.60;;;;;;;;5032843;28;8888;-75
2022/05/16 10:26:35;;;;;;;;;13.00;13.00;;;;;;;;5037643;28;8869;-78
2022/05/16 10:29:06;;;;;;;;;10.20;9.80;;;;;;;;5038638;28;8880;-78
2022/05/16 10:34:26;;;;;;;;;8.40;8.40;;;;;;;;5039341;28;8976;-78
2022/05/16 10:36:56;;;;;;;;;12.40;11.00;;;;;;;;5041053;28;9002;-77
2022/05/16 10:39:26;;;;;;;;;14.40;12.40;;;;;;;;5040469;28;8874;-82
2022/05/16 10:41:58;;;;;;;;;11.40;10.40;;;;;;;;5039981;28;8889;-83
2022/05/16 10:44:31;;;;;;;;;8.60;8.60;;;;;;;;5041202;28;8873;-78
2022/05/16 10:47:03;;;;;;;;;9.60;9.60;;;;;;;;5040928;28;8869;-80
2022/05/16 10:49:37;;;;;;;;;7.80;7.80;;;;;;;;5039587;28;8882;-78
2022/05/16 10:52:18;;;;;;;;;9.40;9.00;;;;;;;;5034442;28;8877;-79
2022/05/16 10:54:45;;;;;;;;;8.00;8.00;;;;;;;;5036259;28;8874;-81
2022/05/16 10:57:21;;;;;;;;;7.40;7.40;;;;;;;;5038619;28;8883;-80
2022/05/16 11:00:07;;;;;;;;;8.40;7.20;;;;;;;;5038491;28;8889;-82
2022/05/16 11:02:52;;;;;;;;;7.80;7.80;;;;;;;;5038336;28;8834;-78
2022/05/16 11:05:28;;;;;;;;;9.00;9.00;;;;;;;;5038654;28;8889;-83
2022/05/16 11:08:02;;;;;;;;;7.80;7.80;;;;;;;;5041223;28;8869;-80
2022/05/16 11:10:33;;;;;;;;;8.00;8.00;;;;;;;;5040398;28;8881;-80
2022/05/16 11:13:11;;;;;;;;;8.60;6.80;;;;;;;;5040025;28;9754;-80
2022/05/16 11:15:41;;;;;;;;;9.60;7.80;;;;;;;;5038593;28;8877;-80
2022/05/16 11:18:15;;;;;;;;;6.60;6.60;;;;;;;;5034974;28;8892;-79
2022/05/16 11:20:48;;;;;;;;;7.20;6.00;;;;;;;;5040397;28;8877;-78
2022/05/16 11:23:26;;;;;;;;;7.00;6.00;;;;;;;;5037089;28;8865;-78
2022/05/16 11:25:58;;;;;;;;;9.40;7.80;;;;;;;;5038053;28;8875;-77
2022/05/16 11:28:32;;;;;;;;;6.60;6.60;;;;;;;;5036076;28;8861;-79
2022/05/16 11:31:05;;;;;;;;;2.80;2.80;;;;;;;;5031192;28;8818;-78
2022/05/16 11:33:38;;;;;;;;;6.60;6.60;;;;;;;;5037733;28;8930;-78
2022/05/16 11:36:08;;;;;;;;;5.20;5.20;;;;;;;;5033091;28;8984;-80
2022/05/16 11:38:50;;;;;;;;;6.80;6.00;;;;;;;;5039623;28;8889;-78
2022/05/16 11:41:29;;;;;;;;;8.20;6.40;;;;;;;;5038647;28;8979;-82
2022/05/16 11:44:04;;;;;;;;;9.00;7.20;;;;;;;;5031641;28;8882;-82
2022/05/16 11:46:39;;;;;;;;;6.20;5.60;;;;;;;;5032984;28;8883;-82
2022/05/16 11:49:22;;;;;;;;;5.80;5.80;;;;;;;;5037239;28;8869;-79
2022/05/16 11:52:01;;;;;;;;;7.60;7.00;;;;;;;;5040765;28;8857;-80
2022/05/16 11:54:33;;;;;;;;;6.20;6.20;;;;;;;;5040371;28;8869;-85
2022/05/16 12:02:42;;;;;;;;;5.20;5.20;;;;;;;;5029058;28;9570;-80
2022/05/16 12:05:13;;;;;;;;;5.40;4.00;;;;;;;;5039560;28;8889;-81
2022/05/16 12:07:43;;;;;;;;;3.00;3.00;;;;;;;;5030589;28;8874;-82
2022/05/16 12:10:26;;;;;;;;;5.00;3.00;;;;;;;;5038889;28;8877;-80
2022/05/16 12:13:18;;;;;;;;;5.60;3.80;;;;;;;;5039383;28;8873;-80
2022/05/16 12:15:46;;;;;;;;;4.40;2.60;;;;;;;;5028538;28;9019;-79
2022/05/16 12:18:34;;;;;;;;;3.00;3.00;;;;;;;;5037065;28;8857;-80
2022/05/16 12:21:05;;;;;;;;;2.60;2.60;;;;;;;;5036333;28;8905;-81
2022/05/16 12:23:55;;;;;;;;;3.40;3.40;;;;;;;;5040191;28;8876;-81
2022/05/16 12:26:57;;;;;;;;;3.40;3.40;;;;;;;;5034514;28;8889;-79
2022/05/16 12:29:31;;;;;;;;;7.80;7.80;;;;;;;;5038476;28;8859;-78
2022/05/16 12:32:00;;;;;;;;;4.60;4.00;;;;;;;;5040493;28;8826;-79
2022/05/16 12:34:45;;;;;;;;;4.40;4.40;;;;;;;;5044127;28;9632;-78
2022/05/16 12:37:15;;;;;;;;;12.80;12.60;;;;;;;;5043358;28;8867;-78
2022/05/16 12:39:53;;;;;;;;;5.00;3.20;;;;;;;;5043056;28;8906;-78
2022/05/16 12:42:46;;;;;;;;;3.80;3.80;;;;;;;;5038328;28;9628;-78
2022/05/16 12:45:46;;;;;;;;;3.40;3.40;;;;;;;;5043588;28;8851;-78
2022/05/16 12:48:47;;;;;;;;;3.20;3.20;;;;;;;;5043409;28;8861;-78
2022/05/16 12:51:37;;;;;;;;;2.80;2.80;;;;;;;;5044202;28;8997;-78
2022/05/16 12:54:35;;;;;;;;;2.60;2.60;;;;;;;;5042018;28;8981;-78
2022/05/16 12:57:19;;;;;;;;;2.00;2.00;;;;;;;;5034780;28;8870;-78
2022/05/16 12:59:56;;;;;;;;;1.20;1.20;;;;;;;;5039596;28;8871;-78
2022/05/16 13:02:29;;;;;;;;;3.20;1.00;;;;;;;;5033183;28;8868;-77
2022/05/16 13:05:15;;;;;;;;;3.00;2.20;;;;;;;;5037969;28;8952;-77
2022/05/16 13:07:53;;;;;;;;;2.00;2.00;;;;;;;;5039372;28;8888;-81
2022/05/16 13:10:30;;;;;;;;;0.00;0.00;;;;;;;;5047516;28;8882;-84
2022/05/16 13:13:04;;;;;;;;;1.00;1.00;;;;;;;;5035338;28;8882;-78
2022/05/16 13:15:36;;;;;;;;;2.60;2.60;;;;;;;;5040644;28;8990;-79
2022/05/16 13:18:10;;;;;;;;;2.60;2.60;;;;;;;;5042678;28;8872;-76
2022/05/16 13:20:41;;;;;;;;;2.80;2.80;;;;;;;;5031584;28;9629;-80
2022/05/16 13:23:08;;;;;;;;;4.60;3.40;;;;;;;;5042126;28;8933;-80
2022/05/16 13:29:21;;;;;;;;;4.00;4.00;;;;;;;;5041552;28;8983;-82
2022/05/16 13:31:09;;;;;;;;;26.40;20.80;;;;;;;;5042963;28;8792;-82
2022/05/16 13:33:38;;;;;;;;;2.60;2.00;;;;;;;;5042905;28;8871;-80
2022/05/16 13:36:19;;;;;;;;;13.80;12.20;;;;;;;;5043128;28;8875;-83
2022/05/16 13:38:52;;;;;;;;;11.80;9.00;;;;;;;;5036589;28;8995;-81
2022/05/16 13:41:23;;;;;;;;;3.20;3.20;;;;;;;;5038570;28;8879;-78
2022/05/16 13:43:51;;;;;;;;;3.20;1.80;;;;;;;;5035018;28;8861;-80
2022/05/16 13:46:19;;;;;;;;;8.00;5.20;;;;;;;;5036582;28;9642;-80
2022/05/16 13:48:56;;;;;;;;;18.80;15.80;;;;;;;;5040285;28;8900;-80
2022/05/16 13:51:24;;;;;;;;;2.00;2.00;;;;;;;;5040827;28;8901;-79
2022/05/16 13:53:51;;;;;;;;;5.80;4.40;;;;;;;;5036103;28;8875;-78
2022/05/16 13:56:37;;;;;;;;;8.00;6.60;;;;;;;;5040263;28;8871;-79
2022/05/16 13:59:04;;;;;;;;;41.60;33.60;;;;;;;;5038579;28;8944;-82
2022/05/16 14:01:34;;;;;;;;;3.80;3.80;;;;;;;;5033675;28;8875;-86
2022/05/16 14:04:06;;;;;;;;;6.00;4.20;;;;;;;;5030425;28;10130;-78
2022/05/16 14:06:38;;;;;;;;;1.80;1.80;;;;;;;;5037688;28;8839;-78
2022/05/16 14:09:09;;;;;;;;;3.40;1.40;;;;;;;;5038661;28;9675;-85
2022/05/16 14:11:36;;;;;;;;;1.00;1.00;;;;;;;;5040643;28;8985;-83
2022/05/16 14:14:04;;;;;;;;;2.20;2.20;;;;;;;;5038896;28;8899;-83
2022/05/16 14:16:40;;;;;;;;;11.00;9.20;;;;;;;;5037877;28;8874;-80
2022/05/16 14:19:10;;;;;;;;;28.20;23.20;;;;;;;;5041358;28;8851;-81
2022/05/16 14:21:50;;;;;;;;;2.00;2.00;;;;;;;;5042011;28;8870;-85
2022/05/16 14:24:21;;;;;;;;;1.60;1.60;;;;;;;;5043801;28;8940;-83
2022/05/16 14:26:50;;;;;;;;;11.60;9.20;;;;;;;;5042927;28;8870;-84
2022/05/16 14:29:21;;;;;;;;;2.00;2.00;;;;;;;;5042814;28;8895;-88
2022/05/16 14:32:05;;;;;;;;;1.60;1.60;;;;;;;;5041582;28;9647;-89
2022/05/16 14:34:36;;;;;;;;;2.60;1.00;;;;;;;;5043635;28;8925;-90
2022/05/16 14:37:07;;;;;;;;;2.00;2.00;;;;;;;;5044202;28;8886;-88
2022/05/16 14:39:44;;;;;;;;;3.20;3.20;;;;;;;;5040234;28;8886;-88
2022/05/16 14:42:14;;;;;;;;;13.40;12.00;;;;;;;;5042972;28;8886;-86
2022/05/16 14:44:43;;;;;;;;;22.00;18.60;;;;;;;;5041829;28;8932;-82
2022/05/16 14:47:25;;;;;;;;;8.20;6.80;;;;;;;;5039449;28;8867;-84
2022/05/16 14:49:53;;;;;;;;;4.20;4.00;;;;;;;;5043536;28;8932;-80
2022/05/16 14:52:25;;;;;;;;;0.80;0.80;;;;;;;;5041670;28;8881;-89
2022/05/16 14:54:57;;;;;;;;;5.40;4.40;;;;;;;;5041710;28;8893;-88
2022/05/16 14:57:25;;;;;;;;;14.80;13.40;;;;;;;;5042725;28;8855;-88
2022/05/16 14:59:53;;;;;;;;;4.80;4.80;;;;;;;;5041081;28;8991;-81
2022/05/16 15:05:08;;;;;;;;;16.00;11.60;;;;;;;;5042489;28;8851;-84
2022/05/16 15:07:38;;;;;;;;;26.40;23.00;;;;;;;;5041294;28;9000;-85
2022/05/16 15:10:09;;;;;;;;;2.80;2.00;;;;;;;;5040056;28;8855;-82
2022/05/16 15:12:37;;;;;;;;;2.00;2.00;;;;;;;;5038515;28;9635;-79
2022/05/16 15:15:05;;;;;;;;;1.80;1.80;;;;;;;;5035081;28;8879;-79
2022/05/16 15:17:34;;;;;;;;;19.20;17.20;;;;;;;;5031790;28;9655;-83
2022/05/16 15:20:01;;;;;;;;;1.80;1.80;;;;;;;;5040941;28;8916;-82
2022/05/16 15:22:30;;;;;;;;;7.40;5.20;;;;;;;;5048686;28;8973;-78
2022/05/16 15:24:58;;;;;;;;;3.00;3.00;;;;;;;;5036699;28;8882;-78
2022/05/16 15:27:25;;;;;;;;;31.20;28.20;;;;;;;;5036861;28;8871;-76
2022/05/16 15:29:53;;;;;;;;;70.50;50.25;;;;;;;;5039819;28;8875;-81
2022/05/16 15:32:21;;;;;;;;;2.20;2.20;;;;;;;;5029398;28;8815;-78
2022/05/16 15:34:50;;;;;;;;;1.20;1.20;;;;;;;;5034979;28;9608;-79
2022/05/16 15:37:20;;;;;;;;;1.80;1.80;;;;;;;;5036200;28;8858;-79
2022/05/16 15:39:49;;;;;;;;;1.20;1.20;;;;;;;;5033249;28;8879;-78
2022/05/16 15:42:17;;;;;;;;;16.40;15.00;;;;;;;;5038348;28;8871;-78
2022/05/16 15:44:44;;;;;;;;;2.00;2.00;;;;;;;;5037278;28;8863;-80
2022/05/16 15:47:15;;;;;;;;;1.40;1.40;;;;;;;;5041121;28;8885;-80
2022/05/16 15:49:46;;;;;;;;;0.20;0.20;;;;;;;;5041624;28;8871;-79
2022/05/16 15:52:15;;;;;;;;;1.00;1.00;;;;;;;;5038054;28;8863;-76
2022/05/16 15:54:42;;;;;;;;;2.20;2.20;;;;;;;;5036374;28;8871;-78
2022/05/16 15:57:12;;;;;;;;;2.40;2.40;;;;;;;;5033351;28;9926;-78
2022/05/16 15:59:41;;;;;;;;;2.40;2.40;;;;;;;;5026744;28;8952;-77
2022/05/16 16:02:14;;;;;;;;;1.80;1.80;;;;;;;;5035389;28;8842;-79
2022/05/16 16:10:15;;;;;;;;;1.60;0.40;;;;;;;;5043304;28;8839;-81
2022/05/16 16:12:42;;;;;;;;;2.60;1.00;;;;;;;;5039867;28;8893;-78